sensor_id;sensor_type;location;lat;lon;timestamp;pressure;altitude;pressure_sealevel;temperature;humidity
71772;BME280;59606;52.138;5.424;2024-02-21T00:02:21;102213.19;;;9.11;100.00
71772;BME280;59606;52.138;5.424;2024-02-21T00:04:48;102208.00;;;9.11;100.00
71772;BME280;59606;52.138;5.424;2024-02-21T00:07:14;102203.69;;;9.10;100.00
71772;BME280;59606;52.138;5.424;2024-02-21T00:09:41;102200.28;;;9.08;100.00
71772;BME280;59606;52.138;5.424;2024-02-21T00:12:08;102182.97;;;9.07;100.00
71772;BME280;59606;52.138;5.424;2024-02-21T00:14:34;102185.59;;;9.05;100.00
71772;BME280;59606;52.138;5.424;2024-02-21T00:17:01;102179.59;;;9.03;100.00
71772;BME280;59606;52.138;5.424;2024-02-21T00:19:27;102183.97;;;9.03;100.00
71772;BME280;59606;52.138;5.424;2024-02-21T00:21:54;102182.22;;;9.03;100.00
71772;BME280;59606;52.138;5.424;2024-02-21T00:24:21;102183.09;;;9.02;100.00
71772;BME280;59606;52.138;5.424;2024-02-21T00:26:47;102188.34;;;9.01;100.00
71772;BME280;59606;52.138;5.424;2024-02-21T00:29:14;102183.13;;;9.01;100.00
71772;BME280;59606;52.138;5.424;2024-02-21T00:31:40;102191.78;;;9.01;100.00
71772;BME280;59606;52.138;5.424;2024-02-21T00:34:08;102184.03;;;9.00;100.00
71772;BME280;59606;52.138;5.424;2024-02-21T00:36:34;102180.53;;;9.01;100.00
71772;BME280;59606;52.138;5.424;2024-02-21T00:39:01;102185.72;;;9.01;100.00
71772;BME280;59606;52.138;5.424;2024-02-21T00:41:27;102170.97;;;9.03;100.00
71772;BME280;59606;52.138;5.424;2024-02-21T00:43:54;102173.59;;;9.01;100.00
71772;BME280;59606;52.138;5.424;2024-02-21T00:46:20;102171.00;;;9.01;100.00
71772;BME280;59606;52.138;5.424;2024-02-21T00:48:47;102168.38;;;9.01;100.00
71772;BME280;59606;52.138;5.424;2024-02-21T00:51:14;102176.19;;;9.01;100.00
71772;BME280;59606;52.138;5.424;2024-02-21T00:53:40;102184.84;;;9.02;100.00
71772;BME280;59606;52.138;5.424;2024-02-21T00:56:07;102185.72;;;9.02;100.00
71772;BME280;59606;52.138;5.424;2024-02-21T00:58:33;102179.63;;;9.02;100.00
71772;BME280;59606;52.138;5.424;2024-02-21T01:01:00;102190.91;;;9.02;100.00
71772;BME280;59606;52.138;5.424;2024-02-21T01:03:27;102193.53;;;9.01;100.00
71772;BME280;59606;52.138;5.424;2024-02-21T01:05:54;102196.13;;;9.01;100.00
71772;BME280;59606;52.138;5.424;2024-02-21T01:08:20;102191.75;;;9.03;100.00
71772;BME280;59606;52.138;5.424;2024-02-21T01:10:47;102197.81;;;9.03;100.00
71772;BME280;59606;52.138;5.424;2024-02-21T01:13:14;102195.22;;;9.03;100.00
71772;BME280;59606;52.138;5.424;2024-02-21T01:15:40;102189.09;;;9.04;100.00
71772;BME280;59606;52.138;5.424;2024-02-21T01:18:07;102185.66;;;9.04;100.00
71772;BME280;59606;52.138;5.424;2024-02-21T01:20:33;102189.94;;;9.05;100.00
71772;BME280;59606;52.138;5.424;2024-02-21T01:23:00;102184.75;;;9.05;100.00
71772;BME280;59606;52.138;5.424;2024-02-21T01:25:27;102181.31;;;9.04;100.00
71772;BME280;59606;52.138;5.424;2024-02-21T01:27:53;102179.56;;;9.05;100.00
71772;BME280;59606;52.138;5.424;2024-02-21T01:30:19;102171.75;;;9.05;100.00
71772;BME280;59606;52.138;5.424;2024-02-21T01:32:46;102167.41;;;9.05;100.00
71772;BME280;59606;52.138;5.424;2024-02-21T01:35:13;102170.88;;;9.06;100.00
71772;BME280;59606;52.138;5.424;2024-02-21T01:37:40;102157.91;;;9.04;100.00
71772;BME280;59606;52.138;5.424;2024-02-21T01:40:07;102163.09;;;9.06;100.00
71772;BME280;59606;52.138;5.424;2024-02-21T01:42:38;102154.41;;;9.05;100.00
71772;BME280;59606;52.138;5.424;2024-02-21T01:45:05;102151.81;;;9.05;100.00
71772;BME280;59606;52.138;5.424;2024-02-21T01:47:31;102143.16;;;9.05;100.00
71772;BME280;59606;52.138;5.424;2024-02-21T01:49:59;102133.66;;;9.04;100.00
71772;BME280;59606;52.138;5.424;2024-02-21T01:52:26;102132.75;;;9.05;100.00
71772;BME280;59606;52.138;5.424;2024-02-21T01:54:52;102131.88;;;9.06;100.00
71772;BME280;59606;52.138;5.424;2024-02-21T01:57:19;102125.03;;;9.03;100.00
71772;BME280;59606;52.138;5.424;2024-02-21T01:59:45;102127.63;;;9.03;100.00
71772;BME280;59606;52.138;5.424;2024-02-21T02:02:13;102128.47;;;9.04;100.00
71772;BME280;59606;52.138;5.424;2024-02-21T02:04:39;102121.56;;;9.03;100.00
71772;BME280;59606;52.138;5.424;2024-02-21T02:07:06;102131.97;;;9.03;100.00
71772;BME280;59606;52.138;5.424;2024-02-21T02:09:33;102126.78;;;9.03;100.00
71772;BME280;59606;52.138;5.424;2024-02-21T02:12:01;102118.13;;;9.02;100.00
71772;BME280;59606;52.138;5.424;2024-02-21T02:14:28;102112.03;;;9.02;100.00
71772;BME280;59606;52.138;5.424;2024-02-21T02:16:54;102101.66;;;9.02;100.00
71772;BME280;59606;52.138;5.424;2024-02-21T02:19:21;102093.00;;;9.01;100.00
71772;BME280;59606;52.138;5.424;2024-02-21T02:21:54;102095.59;;;9.01;100.00
71772;BME280;59606;52.138;5.424;2024-02-21T02:24:24;102099.06;;;9.02;100.00
71772;BME280;59606;52.138;5.424;2024-02-21T02:26:54;102093.84;;;9.02;100.00
71772;BME280;59606;52.138;5.424;2024-02-21T02:29:20;102089.56;;;9.01;100.00
71772;BME280;59606;52.138;5.424;2024-02-21T02:31:47;102089.56;;;9.01;100.00
71772;BME280;59606;52.138;5.424;2024-02-21T02:34:13;102093.00;;;9.01;100.00
71772;BME280;59606;52.138;5.424;2024-02-21T02:36:40;102091.31;;;9.00;100.00
71772;BME280;59606;52.138;5.424;2024-02-21T02:39:06;102084.34;;;9.01;100.00
71772;BME280;59606;52.138;5.424;2024-02-21T02:41:35;102084.34;;;9.01;100.00
71772;BME280;59606;52.138;5.424;2024-02-21T02:44:02;102076.56;;;9.01;100.00
71772;BME280;59606;52.138;5.424;2024-02-21T02:46:29;102086.94;;;9.02;100.00
71772;BME280;59606;52.138;5.424;2024-02-21T02:48:56;102079.13;;;9.02;100.00
71772;BME280;59606;52.138;5.424;2024-02-21T02:51:22;102086.06;;;9.02;100.00
71772;BME280;59606;52.138;5.424;2024-02-21T02:53:49;102085.22;;;9.01;100.00
71772;BME280;59606;52.138;5.424;2024-02-21T02:56:15;102078.25;;;9.02;100.00
71772;BME280;59606;52.138;5.424;2024-02-21T02:58:43;102067.00;;;9.01;100.00
71772;BME280;59606;52.138;5.424;2024-02-21T03:01:09;102067.84;;;9.02;100.00
71772;BME280;59606;52.138;5.424;2024-02-21T03:03:36;102053.16;;;9.01;100.00
71772;BME280;59606;52.138;5.424;2024-02-21T03:06:03;102048.88;;;9.00;100.00
71772;BME280;59606;52.138;5.424;2024-02-21T03:08:30;102048.81;;;9.01;100.00
71772;BME280;59606;52.138;5.424;2024-02-21T03:10:57;102051.47;;;9.00;100.00
71772;BME280;59606;52.138;5.424;2024-02-21T03:13:24;102047.16;;;8.98;100.00
71772;BME280;59606;52.138;5.424;2024-02-21T03:15:50;102045.47;;;8.97;100.00
71772;BME280;59606;52.138;5.424;2024-02-21T03:18:17;102037.66;;;8.97;100.00
71772;BME280;59606;52.138;5.424;2024-02-21T03:20:43;102042.91;;;8.96;100.00
71772;BME280;59606;52.138;5.424;2024-02-21T03:23:10;102035.13;;;8.96;100.00
71772;BME280;59606;52.138;5.424;2024-02-21T03:25:36;102038.59;;;8.95;100.00
71772;BME280;59606;52.138;5.424;2024-02-21T03:28:03;102032.53;;;8.94;100.00
71772;BME280;59606;52.138;5.424;2024-02-21T03:30:30;102030.78;;;8.95;100.00
71772;BME280;59606;52.138;5.424;2024-02-21T03:32:56;102021.31;;;8.94;100.00
71772;BME280;59606;52.138;5.424;2024-02-21T03:35:23;102012.66;;;8.93;100.00
71772;BME280;59606;52.138;5.424;2024-02-21T03:37:53;102011.81;;;8.93;100.00
71772;BME280;59606;52.138;5.424;2024-02-21T03:40:19;102003.16;;;8.92;100.00
71772;BME280;59606;52.138;5.424;2024-02-21T03:42:46;102003.16;;;8.92;100.00
71772;BME280;59606;52.138;5.424;2024-02-21T03:45:12;101996.25;;;8.91;100.00
71772;BME280;59606;52.138;5.424;2024-02-21T03:47:39;101994.56;;;8.90;100.00
71772;BME280;59606;52.138;5.424;2024-02-21T03:50:06;101991.97;;;8.90;100.00
71772;BME280;59606;52.138;5.424;2024-02-21T03:52:33;101997.16;;;8.90;100.00
71772;BME280;59606;52.138;5.424;2024-02-21T03:55:00;101999.75;;;8.90;100.00
71772;BME280;59606;52.138;5.424;2024-02-21T03:57:26;102006.72;;;8.88;100.00
71772;BME280;59606;52.138;5.424;2024-02-21T03:59:53;101991.13;;;8.88;100.00
71772;BME280;59606;52.138;5.424;2024-02-21T04:02:19;101998.09;;;8.88;100.00
71772;BME280;59606;52.138;5.424;2024-02-21T04:04:46;101998.94;;;8.88;100.00
71772;BME280;59606;52.138;5.424;2024-02-21T04:07:14;101992.88;;;8.88;100.00
71772;BME280;59606;52.138;5.424;2024-02-21T04:09:41;102004.19;;;8.87;100.00
71772;BME280;59606;52.138;5.424;2024-02-21T04:12:08;101996.41;;;8.87;100.00
71772;BME280;59606;52.138;5.424;2024-02-21T04:14:35;101995.56;;;8.86;100.00
71772;BME280;59606;52.138;5.424;2024-02-21T04:17:01;101989.53;;;8.84;100.00
71772;BME280;59606;52.138;5.424;2024-02-21T04:19:28;101982.59;;;8.85;100.00
71772;BME280;59606;52.138;5.424;2024-02-21T04:21:55;101968.75;;;8.84;100.00
71772;BME280;59606;52.138;5.424;2024-02-21T04:24:21;101979.13;;;8.84;100.00
71772;BME280;59606;52.138;5.424;2024-02-21T04:26:48;101973.94;;;8.84;100.00
71772;BME280;59606;52.138;5.424;2024-02-21T04:29:14;101974.78;;;8.85;100.00
71772;BME280;59606;52.138;5.424;2024-02-21T04:31:41;101972.25;;;8.83;100.00
71772;BME280;59606;52.138;5.424;2024-02-21T04:34:07;101968.75;;;8.84;100.00
71772;BME280;59606;52.138;5.424;2024-02-21T04:36:34;101975.69;;;8.84;100.00
71772;BME280;59606;52.138;5.424;2024-02-21T04:39:00;101973.16;;;8.82;100.00
71772;BME280;59606;52.138;5.424;2024-02-21T04:41:27;101971.41;;;8.83;100.00
71772;BME280;59606;52.138;5.424;2024-02-21T04:43:53;101963.63;;;8.81;100.00
71772;BME280;59606;52.138;5.424;2024-02-21T04:46:20;101958.44;;;8.81;100.00
71772;BME280;59606;52.138;5.424;2024-02-21T04:48:46;101953.25;;;8.81;100.00
71772;BME280;59606;52.138;5.424;2024-02-21T04:51:13;101942.84;;;8.81;100.00
71772;BME280;59606;52.138;5.424;2024-02-21T04:53:40;101949.78;;;8.81;100.00
71772;BME280;59606;52.138;5.424;2024-02-21T04:56:07;101948.94;;;8.80;100.00
71772;BME280;59606;52.138;5.424;2024-02-21T04:58:37;101954.22;;;8.79;100.00
71772;BME280;59606;52.138;5.424;2024-02-21T05:01:04;101948.09;;;8.80;100.00
71772;BME280;59606;52.138;5.424;2024-02-21T05:03:30;101940.34;;;8.78;100.00
71772;BME280;59606;52.138;5.424;2024-02-21T05:05:57;101945.53;;;8.78;100.00
71772;BME280;59606;52.138;5.424;2024-02-21T05:08:23;101943.81;;;8.79;100.00
71772;BME280;59606;52.138;5.424;2024-02-21T05:10:50;101942.91;;;8.80;100.00
71772;BME280;59606;52.138;5.424;2024-02-21T05:13:17;101949.84;;;8.79;100.00
71772;BME280;59606;52.138;5.424;2024-02-21T05:15:43;101948.09;;;8.80;100.00
71772;BME280;59606;52.138;5.424;2024-02-21T05:18:10;101937.72;;;8.80;100.00
71772;BME280;59606;52.138;5.424;2024-02-21T05:20:37;101925.63;;;8.79;100.00
71772;BME280;59606;52.138;5.424;2024-02-21T05:23:03;101920.38;;;8.80;100.00
71772;BME280;59606;52.138;5.424;2024-02-21T05:25:30;101919.53;;;8.80;100.00
71772;BME280;59606;52.138;5.424;2024-02-21T05:27:56;101917.78;;;8.80;100.00
71772;BME280;59606;52.138;5.424;2024-02-21T05:30:28;101910.88;;;8.79;100.00
71772;BME280;59606;52.138;5.424;2024-02-21T05:32:55;101910.06;;;8.77;100.00
71772;BME280;59606;52.138;5.424;2024-02-21T05:35:28;101909.16;;;8.78;100.00
71772;BME280;59606;52.138;5.424;2024-02-21T05:37:55;101892.72;;;8.78;100.00
71772;BME280;59606;52.138;5.424;2024-02-21T05:40:22;101882.31;;;8.78;100.00
71772;BME280;59606;52.138;5.424;2024-02-21T05:42:48;101887.50;;;8.79;100.00
71772;BME280;59606;52.138;5.424;2024-02-21T05:45:15;101886.75;;;8.76;100.00
71772;BME280;59606;52.138;5.424;2024-02-21T05:47:41;101882.41;;;8.76;100.00
71772;BME280;59606;52.138;5.424;2024-02-21T05:50:09;101866.81;;;8.76;100.00
71772;BME280;59606;52.138;5.424;2024-02-21T05:52:36;101868.56;;;8.76;100.00
71772;BME280;59606;52.138;5.424;2024-02-21T05:55:03;101872.00;;;8.76;100.00
71772;BME280;59606;52.138;5.424;2024-02-21T05:57:29;101863.38;;;8.74;100.00
71772;BME280;59606;52.138;5.424;2024-02-21T05:59:56;101864.28;;;8.73;100.00
71772;BME280;59606;52.138;5.424;2024-02-21T06:02:22;101863.44;;;8.72;100.00
71772;BME280;59606;52.138;5.424;2024-02-21T06:04:49;101855.69;;;8.71;100.00
71772;BME280;59606;52.138;5.424;2024-02-21T06:07:15;101853.94;;;8.71;100.00
71772;BME280;59606;52.138;5.424;2024-02-21T06:09:42;101854.81;;;8.72;100.00
71772;BME280;59606;52.138;5.424;2024-02-21T06:12:09;101854.81;;;8.72;100.00
71772;BME280;59606;52.138;5.424;2024-02-21T06:14:35;101852.16;;;8.73;100.00
71772;BME280;59606;52.138;5.424;2024-02-21T06:17:03;101841.75;;;8.73;100.00
71772;BME280;59606;52.138;5.424;2024-02-21T06:19:29;101840.06;;;8.72;100.00
71772;BME280;59606;52.138;5.424;2024-02-21T06:21:56;101847.03;;;8.72;100.00
71772;BME280;59606;52.138;5.424;2024-02-21T06:24:23;101847.03;;;8.72;100.00
71772;BME280;59606;52.138;5.424;2024-02-21T06:26:49;101849.63;;;8.72;100.00
71772;BME280;59606;52.138;5.424;2024-02-21T06:29:16;101852.16;;;8.73;100.00
71772;BME280;59606;52.138;5.424;2024-02-21T06:31:42;101855.66;;;8.72;100.00
71772;BME280;59606;52.138;5.424;2024-02-21T06:34:09;101860.00;;;8.72;100.00
71772;BME280;59606;52.138;5.424;2024-02-21T06:36:35;101858.34;;;8.69;100.00
71772;BME280;59606;52.138;5.424;2024-02-21T06:39:02;101865.31;;;8.67;100.00
71772;BME280;59606;52.138;5.424;2024-02-21T06:41:33;101862.81;;;8.64;100.00
71772;BME280;59606;52.138;5.424;2024-02-21T06:44:01;101860.22;;;8.64;100.00
71772;BME280;59606;52.138;5.424;2024-02-21T06:46:28;101860.22;;;8.64;100.00
71772;BME280;59606;52.138;5.424;2024-02-21T06:48:56;101853.41;;;8.62;100.00
71772;BME280;59606;52.138;5.424;2024-02-21T06:51:24;101856.88;;;8.61;100.00
71772;BME280;59606;52.138;5.424;2024-02-21T06:53:52;101842.22;;;8.58;100.00
71772;BME280;59606;52.138;5.424;2024-02-21T06:56:18;101849.16;;;8.58;100.00
71772;BME280;59606;52.138;5.424;2024-02-21T06:58:45;101837.91;;;8.59;100.00
71772;BME280;59606;52.138;5.424;2024-02-21T07:01:12;101840.50;;;8.59;100.00
71772;BME280;59606;52.138;5.424;2024-02-21T07:03:38;101843.88;;;8.61;100.00
71772;BME280;59606;52.138;5.424;2024-02-21T07:06:05;101834.41;;;8.58;100.00
71772;BME280;59606;52.138;5.424;2024-02-21T07:08:32;101829.28;;;8.57;100.00
71772;BME280;59606;52.138;5.424;2024-02-21T07:11:00;101837.09;;;8.57;100.00
71772;BME280;59606;52.138;5.424;2024-02-21T07:13:28;101831.88;;;8.57;100.00
71772;BME280;59606;52.138;5.424;2024-02-21T07:15:56;101833.59;;;8.58;100.00
71772;BME280;59606;52.138;5.424;2024-02-21T07:18:23;101825.78;;;8.58;100.00
71772;BME280;59606;52.138;5.424;2024-02-21T07:20:58;101823.25;;;8.56;100.00
71772;BME280;59606;52.138;5.424;2024-02-21T07:23:26;101824.09;;;8.57;100.00
71772;BME280;59606;52.138;5.424;2024-02-21T07:25:56;101815.41;;;8.58;100.00
71772;BME280;59606;52.138;5.424;2024-02-21T07:28:25;101817.22;;;8.56;100.00
71772;BME280;59606;52.138;5.424;2024-02-21T07:30:52;101813.66;;;8.58;100.00
71772;BME280;59606;52.138;5.424;2024-02-21T07:33:20;101807.59;;;8.58;100.00
71772;BME280;59606;52.138;5.424;2024-02-21T07:35:55;101806.81;;;8.56;100.00
71772;BME280;59606;52.138;5.424;2024-02-21T07:38:22;101800.72;;;8.57;100.00
71772;BME280;59606;52.138;5.424;2024-02-21T07:40:54;101798.13;;;8.57;100.00
71772;BME280;59606;52.138;5.424;2024-02-21T07:43:22;101793.75;;;8.59;100.00
71772;BME280;59606;52.138;5.424;2024-02-21T07:45:50;101785.97;;;8.57;100.00
71772;BME280;59606;52.138;5.424;2024-02-21T07:48:18;101780.66;;;8.62;100.00
71772;BME280;59606;52.138;5.424;2024-02-21T07:50:45;101775.47;;;8.62;100.00
71772;BME280;59606;52.138;5.424;2024-02-21T07:53:16;101771.97;;;8.63;100.00
71772;BME280;59606;52.138;5.424;2024-02-21T07:55:43;101769.31;;;8.64;100.00
71772;BME280;59606;52.138;5.424;2024-02-21T07:58:10;101757.13;;;8.66;100.00
71772;BME280;59606;52.138;5.424;2024-02-21T08:00:37;101754.47;;;8.68;100.00
71772;BME280;59606;52.138;5.424;2024-02-21T08:03:04;101751.88;;;8.68;100.00
71772;BME280;59606;52.138;5.424;2024-02-21T08:05:34;101757.91;;;8.68;100.00
71772;BME280;59606;52.138;5.424;2024-02-21T08:08:09;101763.06;;;8.70;100.00
71772;BME280;59606;52.138;5.424;2024-02-21T08:10:36;101753.53;;;8.70;100.00
71772;BME280;59606;52.138;5.424;2024-02-21T08:13:06;101759.47;;;8.74;100.00
71772;BME280;59606;52.138;5.424;2024-02-21T08:15:32;101746.44;;;8.76;100.00
71772;BME280;59606;52.138;5.424;2024-02-21T08:18:01;101752.41;;;8.78;100.00
71772;BME280;59606;52.138;5.424;2024-02-21T08:20:31;101736.81;;;8.79;100.00
71772;BME280;59606;52.138;5.424;2024-02-21T08:22:57;101742.84;;;8.80;100.00
71772;BME280;59606;52.138;5.424;2024-02-21T08:25:24;101736.69;;;8.82;100.00
71772;BME280;59606;52.138;5.424;2024-02-21T08:27:59;101732.28;;;8.84;100.00
71772;BME280;59606;52.138;5.424;2024-02-21T08:30:26;101730.50;;;8.86;100.00
71772;BME280;59606;52.138;5.424;2024-02-21T08:33:03;101731.28;;;8.88;100.00
71772;BME280;59606;52.138;5.424;2024-02-21T08:35:30;101723.38;;;8.91;100.00
71772;BME280;59606;52.138;5.424;2024-02-21T08:37:57;101723.28;;;8.94;100.00
71772;BME280;59606;52.138;5.424;2024-02-21T08:40:25;101718.94;;;8.95;100.00
71772;BME280;59606;52.138;5.424;2024-02-21T08:42:53;101712.78;;;8.97;100.00
71772;BME280;59606;52.138;5.424;2024-02-21T08:45:20;101710.19;;;8.97;100.00
71772;BME280;59606;52.138;5.424;2024-02-21T08:47:47;101702.34;;;8.99;100.00
71772;BME280;59606;52.138;5.424;2024-02-21T08:50:13;101691.03;;;9.00;100.00
71772;BME280;59606;52.138;5.424;2024-02-21T08:52:54;101682.34;;;9.01;100.00
71772;BME280;59606;52.138;5.424;2024-02-21T08:55:22;101684.00;;;9.04;100.00
71772;BME280;59606;52.138;5.424;2024-02-21T08:57:51;101682.13;;;9.07;100.00
71772;BME280;59606;52.138;5.424;2024-02-21T09:00:18;101678.59;;;9.10;100.00
71772;BME280;59606;52.138;5.424;2024-02-21T09:02:51;101690.63;;;9.12;100.00
71772;BME280;59606;52.138;5.424;2024-02-21T09:05:19;101683.66;;;9.13;100.00
71772;BME280;59606;52.138;5.424;2024-02-21T09:07:46;101681.00;;;9.14;100.00
71772;BME280;59606;52.138;5.424;2024-02-21T09:10:13;101687.84;;;9.17;100.00
71772;BME280;59606;52.138;5.424;2024-02-21T09:12:42;101676.53;;;9.18;100.00
71772;BME280;59606;52.138;5.424;2024-02-21T09:15:11;101673.84;;;9.21;100.00
71772;BME280;59606;52.138;5.424;2024-02-21T09:17:40;101669.47;;;9.21;100.00
71772;BME280;59606;52.138;5.424;2024-02-21T09:20:07;101670.31;;;9.22;100.00
71772;BME280;59606;52.138;5.424;2024-02-21T09:22:37;101664.19;;;9.25;100.00
71772;BME280;59606;52.138;5.424;2024-02-21T09:25:07;101659.03;;;9.23;100.00
71772;BME280;59606;52.138;5.424;2024-02-21T09:27:36;101658.19;;;9.23;100.00
71772;BME280;59606;52.138;5.424;2024-02-21T09:30:03;101658.97;;;9.25;100.00
71772;BME280;59606;52.138;5.424;2024-02-21T09:32:32;101655.34;;;9.29;100.00
71772;BME280;59606;52.138;5.424;2024-02-21T09:34:59;101644.00;;;9.31;100.00
71772;BME280;59606;52.138;5.424;2024-02-21T09:37:28;101642.31;;;9.30;100.00
71772;BME280;59606;52.138;5.424;2024-02-21T09:39:55;101628.47;;;9.30;100.00
71772;BME280;59606;52.138;5.424;2024-02-21T09:42:21;101627.50;;;9.32;100.00
71772;BME280;59606;52.138;5.424;2024-02-21T09:44:50;101622.16;;;9.35;100.00
71772;BME280;59606;52.138;5.424;2024-02-21T09:47:33;101607.38;;;9.37;100.00
71772;BME280;59606;52.138;5.424;2024-02-21T09:50:06;101611.53;;;9.41;100.00
71772;BME280;59606;52.138;5.424;2024-02-21T09:52:41;101608.19;;;9.39;100.00
71772;BME280;59606;52.138;5.424;2024-02-21T09:55:12;101596.06;;;9.38;100.00
71772;BME280;59606;52.138;5.424;2024-02-21T09:57:41;101594.34;;;9.39;100.00
71772;BME280;59606;52.138;5.424;2024-02-21T10:00:16;101585.63;;;9.40;100.00
71772;BME280;59606;52.138;5.424;2024-02-21T10:02:50;101576.84;;;9.42;100.00
71772;BME280;59606;52.138;5.424;2024-02-21T10:05:17;101572.44;;;9.44;100.00
71772;BME280;59606;52.138;5.424;2024-02-21T10:07:48;101558.47;;;9.47;100.00
71772;BME280;59606;52.138;5.424;2024-02-21T10:10:18;101554.91;;;9.50;100.00
71772;BME280;59606;52.138;5.424;2024-02-21T10:12:50;101546.09;;;9.52;100.00
71772;BME280;59606;52.138;5.424;2024-02-21T10:15:23;101540.78;;;9.55;100.00
71772;BME280;59606;52.138;5.424;2024-02-21T10:18:02;101540.66;;;9.58;100.00
71772;BME280;59606;52.138;5.424;2024-02-21T10:20:31;101531.06;;;9.60;100.00
71772;BME280;59606;52.138;5.424;2024-02-21T10:23:05;101537.84;;;9.64;100.00
71772;BME280;59606;52.138;5.424;2024-02-21T10:25:36;101529.09;;;9.65;100.00
71772;BME280;59606;52.138;5.424;2024-02-21T10:28:19;101529.00;;;9.68;100.00
71772;BME280;59606;52.138;5.424;2024-02-21T10:30:54;101503.69;;;9.72;100.00
71772;BME280;59606;52.138;5.424;2024-02-21T10:33:22;101492.19;;;9.78;100.00
71772;BME280;59606;52.138;5.424;2024-02-21T10:35:52;101495.47;;;9.83;100.00
71772;BME280;59606;52.138;5.424;2024-02-21T10:38:27;101498.72;;;9.88;100.00
71772;BME280;59606;52.138;5.424;2024-02-21T10:40:56;101490.88;;;9.89;100.00
71772;BME280;59606;52.138;5.424;2024-02-21T10:43:27;101489.88;;;9.92;100.00
71772;BME280;59606;52.138;5.424;2024-02-21T10:46:00;101484.34;;;10.00;100.00
71772;BME280;59606;52.138;5.424;2024-02-21T10:48:39;101478.22;;;10.01;100.00
71772;BME280;59606;52.138;5.424;2024-02-21T10:51:18;101469.63;;;9.99;100.00
71772;BME280;59606;52.138;5.424;2024-02-21T10:56:34;101449.81;;;9.96;100.00
71772;BME280;59606;52.138;5.424;2024-02-21T10:59:04;101437.56;;;9.98;100.00
71772;BME280;59606;52.138;5.424;2024-02-21T11:01:31;101413.16;;;10.01;100.00
71772;BME280;59606;52.138;5.424;2024-02-21T11:04:01;101397.31;;;10.05;100.00
71772;BME280;59606;52.138;5.424;2024-02-21T11:06:29;101386.03;;;10.06;100.00
71772;BME280;59606;52.138;5.424;2024-02-21T11:09:06;101387.63;;;10.09;100.00
71772;BME280;59606;52.138;5.424;2024-02-21T11:11:46;101381.56;;;10.08;100.00
71772;BME280;59606;52.138;5.424;2024-02-21T11:14:20;101419.88;;;10.06;100.00
71772;BME280;59606;52.138;5.424;2024-02-21T11:16:47;101464.31;;;10.02;100.00
71772;BME280;59606;52.138;5.424;2024-02-21T11:19:21;101455.00;;;9.96;100.00
71772;BME280;59606;52.138;5.424;2024-02-21T11:21:49;101452.59;;;9.91;100.00
71772;BME280;59606;52.138;5.424;2024-02-21T11:24:32;101446.75;;;9.86;100.00
71772;BME280;59606;52.138;5.424;2024-02-21T11:29:43;101439.34;;;9.76;100.00
71772;BME280;59606;52.138;5.424;2024-02-21T11:32:11;101436.91;;;9.73;100.00
71772;BME280;59606;52.138;5.424;2024-02-21T11:34:38;101429.94;;;9.73;100.00
71772;BME280;59606;52.138;5.424;2024-02-21T11:37:13;101429.94;;;9.73;100.00
71772;BME280;59606;52.138;5.424;2024-02-21T11:39:42;101403.22;;;9.70;100.00
71772;BME280;59606;52.138;5.424;2024-02-21T11:42:09;101403.25;;;9.68;100.00
71772;BME280;59606;52.138;5.424;2024-02-21T11:44:36;101395.59;;;9.65;100.00
71772;BME280;59606;52.138;5.424;2024-02-21T11:47:06;101379.25;;;9.61;100.00
71772;BME280;59606;52.138;5.424;2024-02-21T11:49:38;101379.34;;;9.60;100.00
71772;BME280;59606;52.138;5.424;2024-02-21T11:52:06;101366.47;;;9.57;100.00
71772;BME280;59606;52.138;5.424;2024-02-21T11:54:33;101376.91;;;9.55;100.00
71772;BME280;59606;52.138;5.424;2024-02-21T11:57:01;101369.00;;;9.58;100.00
71772;BME280;59606;52.138;5.424;2024-02-21T11:59:30;101354.31;;;9.57;100.00
71772;BME280;59606;52.138;5.424;2024-02-21T12:02:01;101317.66;;;9.62;100.00
71772;BME280;59606;52.138;5.424;2024-02-21T12:04:30;101311.88;;;9.76;100.00
71772;BME280;59606;52.138;5.424;2024-02-21T12:06:59;101306.34;;;9.83;100.00
71772;BME280;59606;52.138;5.424;2024-02-21T12:09:26;101282.44;;;9.94;100.00
71772;BME280;59606;52.138;5.424;2024-02-21T12:12:00;101276.81;;;10.03;100.00
71772;BME280;59606;52.138;5.424;2024-02-21T12:14:29;101268.66;;;10.11;100.00
71772;BME280;59606;52.138;5.424;2024-02-21T12:16:57;101247.47;;;10.19;100.00
71772;BME280;59606;52.138;5.424;2024-02-21T12:19:24;101247.91;;;10.28;100.00
71772;BME280;59606;52.138;5.424;2024-02-21T12:21:50;101250.00;;;10.39;100.00
71772;BME280;59606;52.138;5.424;2024-02-21T12:24:22;101257.25;;;10.51;100.00
71772;BME280;59606;52.138;5.424;2024-02-21T12:26:56;101247.66;;;10.52;100.00
71772;BME280;59606;52.138;5.424;2024-02-21T12:29:26;101243.09;;;10.57;100.00
71772;BME280;59606;52.138;5.424;2024-02-21T12:31:54;101241.53;;;10.53;100.00
71772;BME280;59606;52.138;5.424;2024-02-21T12:34:21;101211.34;;;10.49;100.00
71772;BME280;59606;52.138;5.424;2024-02-21T12:37:04;101209.66;;;10.48;100.00
71772;BME280;59606;52.138;5.424;2024-02-21T12:39:31;101191.53;;;10.46;100.00
71772;BME280;59606;52.138;5.424;2024-02-21T12:41:58;101191.56;;;10.45;100.00
71772;BME280;59606;52.138;5.424;2024-02-21T12:44:25;101182.09;;;10.44;100.00
71772;BME280;59606;52.138;5.424;2024-02-21T12:46:52;101177.78;;;10.43;100.00
71772;BME280;59606;52.138;5.424;2024-02-21T12:49:21;101166.50;;;10.42;100.00
71772;BME280;59606;52.138;5.424;2024-02-21T12:51:49;101154.31;;;10.43;100.00
71772;BME280;59606;52.138;5.424;2024-02-21T12:54:15;101155.88;;;10.47;100.00
71772;BME280;59606;52.138;5.424;2024-02-21T12:56:42;101147.25;;;10.46;100.00
71772;BME280;59606;52.138;5.424;2024-02-21T12:59:09;101133.28;;;10.47;100.00
71772;BME280;59606;52.138;5.424;2024-02-21T13:01:36;101121.88;;;10.50;100.00